Time;durP1;ratioP1;P1;durP2;ratioP2;P2;SDS_P1;SDS_P2;PMS_P1;PMS_P2;Temp;Humidity;BMP_temperature;BMP_pressure;BME280_temperature;BME280_humidity;BME280_pressure;Samples;Min_cycle;Max_cycle;Signal;HPM_P1;HPM_P2
2023/09/19 06:02:41;;;;;;;6.10;2.63;;;;;;;;;;5274686;23;20492;-71
2023/09/19 06:05:10;;;;;;;5.53;2.97;;;;;;;;;;4973971;28;20502;-71
2023/09/19 06:07:36;;;;;;;4.10;2.57;;;;;;;;;;4975400;28;20423;-70
2023/09/19 06:10:08;;;;;;;2.93;2.27;;;;;;;;;;4975820;28;20396;-71
2023/09/19 06:12:35;;;;;;;5.23;2.57;;;;;;;;;;4955789;28;20408;-70
2023/09/19 06:15:01;;;;;;;2.57;2.43;;;;;;;;;;4956466;28;20459;-70
2023/09/19 06:17:27;;;;;;;5.13;3.10;;;;;;;;;;4955167;29;20460;-71
2023/09/19 06:19:54;;;;;;;3.90;2.80;;;;;;;;;;4956038;28;20459;-72
2023/09/19 06:22:20;;;;;;;4.97;2.80;;;;;;;;;;4955544;28;20489;-72
2023/09/19 06:24:46;;;;;;;2.93;2.30;;;;;;;;;;4955346;29;20448;-71
2023/09/19 06:27:13;;;;;;;9.23;3.03;;;;;;;;;;4955448;28;20413;-71
2023/09/19 06:29:39;;;;;;;7.57;3.07;;;;;;;;;;4955804;28;20904;-71
2023/09/19 06:32:11;;;;;;;6.77;3.83;;;;;;;;;;4955792;29;20432;-71
2023/09/19 06:34:38;;;;;;;10.63;4.00;;;;;;;;;;4956095;29;20779;-72
2023/09/19 06:37:06;;;;;;;3.97;3.40;;;;;;;;;;4956994;28;20417;-72
2023/09/19 06:39:32;;;;;;;5.67;3.20;;;;;;;;;;4961783;28;20419;-71
2023/09/19 06:42:00;;;;;;;5.50;3.03;;;;;;;;;;4961059;29;20487;-72
2023/09/19 06:44:26;;;;;;;11.03;3.33;;;;;;;;;;4960950;28;20417;-72
2023/09/19 06:46:52;;;;;;;5.70;3.30;;;;;;;;;;4955469;29;20761;-71
2023/09/19 06:49:18;;;;;;;4.07;3.03;;;;;;;;;;4954705;29;20421;-71
2023/09/19 06:51:44;;;;;;;5.87;3.80;;;;;;;;;;4954240;29;20442;-71
2023/09/19 06:54:13;;;;;;;8.97;3.70;;;;;;;;;;4955376;29;20424;-71
2023/09/19 06:56:39;;;;;;;5.77;3.07;;;;;;;;;;4954296;29;20460;-72
2023/09/19 06:59:06;;;;;;;5.17;3.00;;;;;;;;;;4955985;28;20787;-72
2023/09/19 07:01:33;;;;;;;6.50;2.77;;;;;;;;;;4955075;28;20539;-72
2023/09/19 07:03:59;;;;;;;11.10;2.93;;;;;;;;;;4953875;29;20431;-72
2023/09/19 07:06:25;;;;;;;4.90;2.50;;;;;;;;;;4954879;29;20412;-72
2023/09/19 07:08:51;;;;;;;4.70;2.77;;;;;;;;;;4954795;29;20897;-72
2023/09/19 07:11:17;;;;;;;6.80;2.70;;;;;;;;;;4954225;29;20523;-72
2023/09/19 07:13:43;;;;;;;4.17;3.00;;;;;;;;;;4954339;28;20405;-72
2023/09/19 07:16:26;;;;;;;10.53;2.70;;;;;;;;;;4954789;29;20427;-72
2023/09/19 07:18:52;;;;;;;4.50;2.30;;;;;;;;;;4954331;28;20404;-70
2023/09/19 07:21:18;;;;;;;7.60;3.10;;;;;;;;;;4954334;28;20439;-71
2023/09/19 07:23:44;;;;;;;3.20;2.40;;;;;;;;;;4954259;29;20417;-71
2023/09/19 07:26:10;;;;;;;8.40;3.00;;;;;;;;;;4954392;29;20417;-71
2023/09/19 07:28:36;;;;;;;4.97;2.50;;;;;;;;;;4954469;29;20472;-72
2023/09/19 07:31:09;;;;;;;4.60;3.60;;;;;;;;;;4954402;29;20516;-71
2023/09/19 07:33:36;;;;;;;8.60;2.67;;;;;;;;;;4954550;28;20814;-71
2023/09/19 07:36:02;;;;;;;7.50;2.87;;;;;;;;;;4954810;28;20500;-71
2023/09/19 07:38:28;;;;;;;11.70;2.80;;;;;;;;;;4953436;29;20467;-71
2023/09/19 07:40:55;;;;;;;5.80;2.63;;;;;;;;;;4954558;29;20433;-71
2023/09/19 07:43:20;;;;;;;11.17;2.70;;;;;;;;;;4953884;28;20987;-71
2023/09/19 07:45:47;;;;;;;3.00;2.20;;;;;;;;;;4953902;29;20401;-71
2023/09/19 07:48:15;;;;;;;7.73;4.67;;;;;;;;;;4954007;28;20487;-72
2023/09/19 07:50:43;;;;;;;6.27;2.60;;;;;;;;;;4952951;29;20448;-71
2023/09/19 07:53:09;;;;;;;7.93;3.60;;;;;;;;;;4953980;28;20413;-71
2023/09/19 07:55:35;;;;;;;4.57;2.30;;;;;;;;;;4953991;29;20421;-71
2023/09/19 07:58:03;;;;;;;2.07;1.60;;;;;;;;;;4953841;29;20833;-72
2023/09/19 08:00:29;;;;;;;3.70;1.97;;;;;;;;;;4953755;28;20927;-72
2023/09/19 08:02:55;;;;;;;3.50;2.03;;;;;;;;;;4953563;29;20508;-72
2023/09/19 08:05:22;;;;;;;5.00;2.10;;;;;;;;;;4953724;29;20484;-72
2023/09/19 08:07:48;;;;;;;4.57;2.97;;;;;;;;;;4952697;29;20424;-72
2023/09/19 08:10:16;;;;;;;3.87;2.20;;;;;;;;;;4952167;29;20428;-73
2023/09/19 08:12:48;;;;;;;4.00;2.20;;;;;;;;;;4953401;28;20421;-73
2023/09/19 08:15:14;;;;;;;6.87;2.30;;;;;;;;;;4953537;28;20421;-72
2023/09/19 08:17:40;;;;;;;4.70;1.90;;;;;;;;;;4953658;29;20437;-72
2023/09/19 08:20:07;;;;;;;4.90;2.23;;;;;;;;;;4953436;29;20439;-73
2023/09/19 08:22:33;;;;;;;4.00;2.20;;;;;;;;;;4953363;28;20523;-72
2023/09/19 08:24:59;;;;;;;4.60;2.20;;;;;;;;;;4953766;29;20404;-73
2023/09/19 08:27:28;;;;;;;3.07;1.90;;;;;;;;;;4953441;29;20409;-72
2023/09/19 08:29:54;;;;;;;5.30;2.50;;;;;;;;;;4953233;29;20409;-72
2023/09/19 08:32:24;;;;;;;6.53;2.50;;;;;;;;;;4953332;28;20429;-73
2023/09/19 08:34:50;;;;;;;3.83;2.00;;;;;;;;;;4956683;28;20899;-72
2023/09/19 08:37:18;;;;;;;4.40;2.07;;;;;;;;;;4957515;29;20417;-72
2023/09/19 08:39:44;;;;;;;5.90;2.27;;;;;;;;;;4957680;28;20408;-73
2023/09/19 08:42:12;;;;;;;4.00;2.40;;;;;;;;;;4957207;28;20470;-72
2023/09/19 08:44:40;;;;;;;3.53;1.97;;;;;;;;;;4957392;28;20409;-73
2023/09/19 08:47:13;;;;;;;8.03;4.07;;;;;;;;;;4957691;28;20405;-73
2023/09/19 08:49:58;;;;;;;4.77;1.83;;;;;;;;;;4957573;28;20564;-72
2023/09/19 08:52:28;;;;;;;2.03;1.73;;;;;;;;;;4956929;29;20455;-72
2023/09/19 08:55:01;;;;;;;9.63;2.40;;;;;;;;;;4956842;29;20404;-73
2023/09/19 08:57:29;;;;;;;3.63;1.70;;;;;;;;;;4957082;28;20903;-72
2023/09/19 08:59:55;;;;;;;2.20;1.60;;;;;;;;;;4957069;29;20844;-72
2023/09/19 09:02:23;;;;;;;1.97;1.40;;;;;;;;;;4956805;29;21006;-72
2023/09/19 09:04:50;;;;;;;4.23;1.97;;;;;;;;;;4957145;28;20416;-73
2023/09/19 09:07:18;;;;;;;4.23;1.80;;;;;;;;;;4956967;29;20409;-73
2023/09/19 09:09:44;;;;;;;2.80;1.57;;;;;;;;;;4957086;28;20413;-72
2023/09/19 09:12:14;;;;;;;4.57;1.90;;;;;;;;;;4957324;29;20511;-73
2023/09/19 09:14:41;;;;;;;4.00;1.80;;;;;;;;;;4959937;28;20476;-72
2023/09/19 09:17:07;;;;;;;4.53;2.20;;;;;;;;;;4962447;28;20412;-72
2023/09/19 09:19:33;;;;;;;2.60;1.70;;;;;;;;;;4960326;29;20428;-72
2023/09/19 09:22:12;;;;;;;4.63;1.70;;;;;;;;;;4958540;29;20472;-72
2023/09/19 09:24:39;;;;;;;2.67;1.90;;;;;;;;;;4957463;29;20468;-72
2023/09/19 09:27:10;;;;;;;5.10;2.00;;;;;;;;;;4955692;29;20794;-72
2023/09/19 09:29:43;;;;;;;5.63;1.97;;;;;;;;;;4956876;28;20571;-72
2023/09/19 09:32:21;;;;;;;7.93;2.57;;;;;;;;;;4955189;29;20520;-72
2023/09/19 09:34:52;;;;;;;5.10;2.13;;;;;;;;;;4956426;29;20417;-72
2023/09/19 09:37:22;;;;;;;6.10;1.93;;;;;;;;;;4956405;29;20775;-72
2023/09/19 09:40:19;;;;;;;8.07;2.20;;;;;;;;;;4956435;28;20507;-73
2023/09/19 09:42:52;;;;;;;3.97;1.90;;;;;;;;;;4956123;28;20460;-72
2023/09/19 09:48:03;;;;;;;5.33;1.67;;;;;;;;;;4956760;29;20397;-71
2023/09/19 09:51:18;;;;;;;3.63;1.80;;;;;;;;;;4956462;28;20852;-71
2023/09/19 09:53:26;;;;;;;3.80;1.80;;;;;;;;;;4947966;28;20569;-73
2023/09/19 09:56:05;;;;;;;6.50;2.10;;;;;;;;;;4956312;28;20828;-72
2023/09/19 09:58:32;;;;;;;2.00;1.63;;;;;;;;;;4956217;28;20408;-72
2023/09/19 10:00:59;;;;;;;4.30;2.10;;;;;;;;;;4955727;28;20441;-72
2023/09/19 10:03:34;;;;;;;2.83;1.80;;;;;;;;;;4955956;28;20551;-71
2023/09/19 10:06:02;;;;;;;3.37;1.83;;;;;;;;;;4956087;28;20503;-71
2023/09/19 10:08:31;;;;;;;5.10;1.87;;;;;;;;;;4956011;28;20408;-72
2023/09/19 10:11:05;;;;;;;2.80;1.57;;;;;;;;;;4955847;28;20444;-72
2023/09/19 10:13:32;;;;;;;3.33;1.73;;;;;;;;;;4955983;28;20829;-72
2023/09/19 10:16:00;;;;;;;3.90;2.03;;;;;;;;;;4955639;28;20908;-72
2023/09/19 10:18:27;;;;;;;3.60;1.83;;;;;;;;;;4954802;29;20420;-72
2023/09/19 10:20:54;;;;;;;4.00;2.20;;;;;;;;;;4955651;28;20444;-72
2023/09/19 10:23:25;;;;;;;2.60;2.00;;;;;;;;;;4955800;28;20464;-72
2023/09/19 10:25:52;;;;;;;2.83;1.50;;;;;;;;;;4954658;29;20424;-72
2023/09/19 10:28:21;;;;;;;2.90;1.90;;;;;;;;;;4955847;29;20409;-72
2023/09/19 10:30:49;;;;;;;4.23;2.10;;;;;;;;;;4958577;28;20501;-71
2023/09/19 10:33:16;;;;;;;6.37;2.00;;;;;;;;;;4963581;29;20440;-71
2023/09/19 10:35:43;;;;;;;4.63;2.23;;;;;;;;;;4964110;29;20545;-71
2023/09/19 10:38:21;;;;;;;5.27;1.90;;;;;;;;;;4956116;29;21042;-71
2023/09/19 10:40:51;;;;;;;4.07;1.73;;;;;;;;;;4955328;29;20436;-72
2023/09/19 10:43:18;;;;;;;3.27;2.00;;;;;;;;;;4955107;28;21003;-71
2023/09/19 10:45:44;;;;;;;2.53;2.00;;;;;;;;;;4955480;29;20496;-71
2023/09/19 10:48:12;;;;;;;6.40;1.70;;;;;;;;;;4955596;29;20489;-71
2023/09/19 10:50:44;;;;;;;5.17;1.83;;;;;;;;;;4955501;28;20951;-72
2023/09/19 10:53:12;;;;;;;5.17;2.10;;;;;;;;;;4955409;28;20412;-72
2023/09/19 10:55:38;;;;;;;2.50;1.80;;;;;;;;;;4954719;28;20409;-72
2023/09/19 10:58:14;;;;;;;3.00;1.80;;;;;;;;;;4955148;29;20417;-71
2023/09/19 11:00:53;;;;;;;7.70;1.60;;;;;;;;;;4955485;28;20924;-71
2023/09/19 11:03:21;;;;;;;2.37;1.43;;;;;;;;;;4955006;28;20955;-71
2023/09/19 11:06:09;;;;;;;4.70;2.20;;;;;;;;;;4954957;28;20892;-71
2023/09/19 11:08:58;;;;;;;2.90;1.43;;;;;;;;;;4953947;29;20417;-71
2023/09/19 11:11:39;;;;;;;3.03;1.80;;;;;;;;;;4954911;29;20500;-71
2023/09/19 11:14:24;;;;;;;4.23;1.90;;;;;;;;;;4954732;29;20464;-71
2023/09/19 11:17:11;;;;;;;2.90;1.60;;;;;;;;;;4954782;28;20437;-71
2023/09/19 11:19:56;;;;;;;3.50;1.90;;;;;;;;;;4953866;29;20431;-72
2023/09/19 11:22:22;;;;;;;6.10;2.17;;;;;;;;;;4955292;28;20474;-72
2023/09/19 11:24:51;;;;;;;2.20;1.60;;;;;;;;;;4954485;29;20583;-72
2023/09/19 11:27:17;;;;;;;2.67;1.50;;;;;;;;;;4954465;28;20405;-72
2023/09/19 11:29:44;;;;;;;3.23;1.73;;;;;;;;;;4954834;28;20416;-71
2023/09/19 11:32:10;;;;;;;4.33;1.90;;;;;;;;;;4954548;29;20433;-72
2023/09/19 11:34:44;;;;;;;5.20;1.90;;;;;;;;;;4954659;29;20420;-71
2023/09/19 11:37:13;;;;;;;2.97;1.27;;;;;;;;;;4954791;28;20472;-72
2023/09/19 11:39:40;;;;;;;7.30;2.40;;;;;;;;;;4954572;29;20831;-71
2023/09/19 11:42:26;;;;;;;2.40;1.27;;;;;;;;;;4954381;28;20520;-71
2023/09/19 11:44:55;;;;;;;4.50;1.60;;;;;;;;;;4954372;28;20472;-71
2023/09/19 11:47:24;;;;;;;3.87;1.73;;;;;;;;;;4954384;28;20776;-72
2023/09/19 11:49:53;;;;;;;5.13;1.57;;;;;;;;;;4954223;28;20803;-72
2023/09/19 11:52:24;;;;;;;4.30;1.70;;;;;;;;;;4954243;29;20491;-71
2023/09/19 11:54:56;;;;;;;4.77;1.57;;;;;;;;;;4954235;28;20412;-70
2023/09/19 11:57:23;;;;;;;2.50;1.57;;;;;;;;;;4952875;29;20429;-71
2023/09/19 11:59:50;;;;;;;2.53;1.60;;;;;;;;;;4954097;29;20408;-71
2023/09/19 12:02:21;;;;;;;2.20;1.27;;;;;;;;;;4952247;29;20480;-70
2023/09/19 12:04:49;;;;;;;2.67;1.53;;;;;;;;;;4954088;28;20417;-70
2023/09/19 12:07:16;;;;;;;1.60;1.30;;;;;;;;;;4954185;28;20963;-71
2023/09/19 12:10:02;;;;;;;8.67;3.43;;;;;;;;;;4953694;29;20781;-70
2023/09/19 12:12:29;;;;;;;4.20;2.37;;;;;;;;;;4953895;28;20475;-71
2023/09/19 12:14:59;;;;;;;3.17;1.40;;;;;;;;;;4987702;23;20978;-72
2023/09/19 12:17:38;;;;;;;9.13;2.30;;;;;;;;;;4972880;28;20407;-74
2023/09/19 12:20:15;;;;;;;3.83;1.77;;;;;;;;;;4971628;28;20478;-73
2023/09/19 12:22:45;;;;;;;7.47;2.57;;;;;;;;;;4972419;28;20881;-73
2023/09/19 12:25:11;;;;;;;2.87;1.57;;;;;;;;;;4972783;28;20428;-73
2023/09/19 12:27:46;;;;;;;2.87;1.63;;;;;;;;;;4972719;28;20481;-73
2023/09/19 12:30:14;;;;;;;3.20;1.60;;;;;;;;;;4972647;28;20772;-73
2023/09/19 12:32:41;;;;;;;3.60;1.77;;;;;;;;;;4972623;28;20416;-75
2023/09/19 12:35:10;;;;;;;4.50;2.00;;;;;;;;;;4972597;28;20554;-74
2023/09/19 12:37:36;;;;;;;3.40;1.83;;;;;;;;;;4972604;28;20422;-73
2023/09/19 12:40:22;;;;;;;4.03;1.70;;;;;;;;;;4972827;28;20412;-73
2023/09/19 12:42:48;;;;;;;2.07;1.30;;;;;;;;;;4972693;28;20455;-73
2023/09/19 12:45:15;;;;;;;5.00;1.77;;;;;;;;;;4973140;28;20866;-72
2023/09/19 12:47:43;;;;;;;3.97;1.70;;;;;;;;;;4973473;28;20404;-72
2023/09/19 12:50:13;;;;;;;12.03;2.50;;;;;;;;;;4974679;28;20436;-71
2023/09/19 12:52:49;;;;;;;6.30;1.97;;;;;;;;;;4974302;28;20431;-72
2023/09/19 12:55:44;;;;;;;2.00;1.47;;;;;;;;;;4975700;28;20442;-72
2023/09/19 12:58:12;;;;;;;4.37;1.70;;;;;;;;;;4959689;28;20419;-72
2023/09/19 13:00:38;;;;;;;2.73;1.63;;;;;;;;;;4975502;28;20455;-72
2023/09/19 13:03:28;;;;;;;3.20;1.83;;;;;;;;;;4974761;28;20507;-72
2023/09/19 13:05:55;;;;;;;3.53;1.80;;;;;;;;;;4973670;28;20454;-73
2023/09/19 13:08:26;;;;;;;3.53;1.80;;;;;;;;;;4973357;28;20475;-72
2023/09/19 13:11:06;;;;;;;3.50;1.67;;;;;;;;;;4973263;28;20814;-71
2023/09/19 13:13:33;;;;;;;4.90;2.70;;;;;;;;;;4973687;28;20412;-72
2023/09/19 13:16:01;;;;;;;3.07;2.10;;;;;;;;;;4975273;28;20486;-71
2023/09/19 13:18:27;;;;;;;5.00;2.37;;;;;;;;;;4973597;28;20458;-72
2023/09/19 13:21:10;;;;;;;7.60;1.90;;;;;;;;;;4976494;28;20843;-71
2023/09/19 13:23:37;;;;;;;3.20;2.07;;;;;;;;;;4977077;28;21001;-71
2023/09/19 13:26:05;;;;;;;4.10;2.10;;;;;;;;;;4976512;28;20503;-71
2023/09/19 13:28:31;;;;;;;2.60;2.00;;;;;;;;;;4977172;28;20411;-72
2023/09/19 13:30:57;;;;;;;4.37;1.83;;;;;;;;;;4976125;28;20416;-72
2023/09/19 13:33:23;;;;;;;2.80;2.00;;;;;;;;;;4975646;28;20416;-73
2023/09/19 13:35:49;;;;;;;5.70;3.53;;;;;;;;;;4977839;28;20578;-72
2023/09/19 13:38:15;;;;;;;5.13;1.80;;;;;;;;;;4977252;28;20415;-72
2023/09/19 13:40:44;;;;;;;4.67;2.30;;;;;;;;;;4982481;28;20415;-72
2023/09/19 13:43:11;;;;;;;3.97;1.67;;;;;;;;;;4984116;28;20467;-71
2023/09/19 13:45:37;;;;;;;3.10;2.03;;;;;;;;;;4986775;28;20486;-73
2023/09/19 13:48:03;;;;;;;8.27;1.87;;;;;;;;;;4988386;28;20412;-72
2023/09/19 13:50:29;;;;;;;3.03;1.80;;;;;;;;;;4988187;28;20475;-71
2023/09/19 13:52:55;;;;;;;4.10;1.63;;;;;;;;;;4987733;28;20416;-71
2023/09/19 13:55:21;;;;;;;3.40;1.70;;;;;;;;;;4988296;28;20443;-72
2023/09/19 13:57:52;;;;;;;2.40;1.70;;;;;;;;;;4989340;28;20485;-71
2023/09/19 14:00:18;;;;;;;4.47;1.90;;;;;;;;;;4987733;28;20412;-71
2023/09/19 14:02:45;;;;;;;5.47;2.07;;;;;;;;;;4979368;28;20462;-71
2023/09/19 14:05:14;;;;;;;5.50;2.03;;;;;;;;;;4975387;28;20797;-73
2023/09/19 14:07:41;;;;;;;4.97;1.80;;;;;;;;;;4975512;28;20408;-70
2023/09/19 14:10:08;;;;;;;5.03;2.20;;;;;;;;;;4975426;28;20408;-72
2023/09/19 14:12:34;;;;;;;10.07;1.87;;;;;;;;;;4975138;28;20408;-71
2023/09/19 14:15:01;;;;;;;4.90;1.80;;;;;;;;;;4974899;28;20875;-71
2023/09/19 14:17:28;;;;;;;6.37;2.47;;;;;;;;;;4974886;28;20755;-71
2023/09/19 14:19:53;;;;;;;3.53;1.70;;;;;;;;;;4975001;28;20429;-72
2023/09/19 14:22:19;;;;;;;5.83;2.70;;;;;;;;;;4974719;28;20471;-72
2023/09/19 14:24:45;;;;;;;4.07;1.80;;;;;;;;;;4974706;28;20522;-72
2023/09/19 14:27:11;;;;;;;3.80;2.07;;;;;;;;;;4974737;28;20416;-72
2023/09/19 14:29:37;;;;;;;4.23;1.90;;;;;;;;;;4974780;28;20438;-73
2023/09/19 14:32:04;;;;;;;2.57;1.60;;;;;;;;;;4973351;28;20422;-72
2023/09/19 14:34:29;;;;;;;2.77;1.90;;;;;;;;;;4974737;28;20439;-72
2023/09/19 14:36:56;;;;;;;2.33;1.53;;;;;;;;;;4973219;28;20432;-72
2023/09/19 14:39:23;;;;;;;3.40;2.07;;;;;;;;;;4974283;28;20431;-71
2023/09/19 14:41:49;;;;;;;3.63;2.43;;;;;;;;;;4974529;28;20466;-71
2023/09/19 14:44:16;;;;;;;4.23;2.37;;;;;;;;;;4974218;28;20463;-71
2023/09/19 14:46:44;;;;;;;3.03;1.63;;;;;;;;;;4974342;28;20507;-73
2023/09/19 14:49:10;;;;;;;8.30;1.80;;;;;;;;;;4974280;28;20416;-73
2023/09/19 14:51:37;;;;;;;3.13;1.97;;;;;;;;;;4974299;28;20412;-73
2023/09/19 14:54:03;;;;;;;3.30;1.70;;;;;;;;;;4974161;28;21003;-72
2023/09/19 14:56:30;;;;;;;5.00;2.10;;;;;;;;;;4974090;28;20412;-71
2023/09/19 14:58:56;;;;;;;2.53;1.77;;;;;;;;;;4972895;28;20518;-72
2023/09/19 15:01:22;;;;;;;2.23;1.87;;;;;;;;;;4974148;28;20507;-73
2023/09/19 15:03:49;;;;;;;5.80;2.30;;;;;;;;;;4973966;28;20468;-73
2023/09/19 15:06:16;;;;;;;3.93;2.83;;;;;;;;;;4974126;28;20404;-72
2023/09/19 15:08:47;;;;;;;6.60;2.47;;;;;;;;;;4973897;28;20974;-72
2023/09/19 15:11:13;;;;;;;3.63;2.00;;;;;;;;;;4972934;28;20466;-72
2023/09/19 15:13:39;;;;;;;2.90;2.10;;;;;;;;;;4972331;28;20424;-72
2023/09/19 15:16:09;;;;;;;2.67;1.73;;;;;;;;;;4973875;28;20412;-71
2023/09/19 15:18:40;;;;;;;5.10;2.07;;;;;;;;;;4972813;28;20435;-72
2023/09/19 15:21:06;;;;;;;3.10;1.50;;;;;;;;;;4974027;28;20491;-71
2023/09/19 15:23:34;;;;;;;3.40;1.50;;;;;;;;;;4974103;28;20467;-72
2023/09/19 15:26:13;;;;;;;6.27;2.37;;;;;;;;;;4973647;28;20408;-71
2023/09/19 15:28:39;;;;;;;4.03;2.30;;;;;;;;;;4973946;28;20400;-72
2023/09/19 15:31:06;;;;;;;2.93;1.73;;;;;;;;;;4974516;28;20442;-71
2023/09/19 15:33:33;;;;;;;1.70;1.40;;;;;;;;;;4974272;28;20424;-71
2023/09/19 15:36:05;;;;;;;5.30;2.00;;;;;;;;;;4973924;28;20416;-71
2023/09/19 15:38:32;;;;;;;3.67;2.20;;;;;;;;;;4973544;28;20423;-71
2023/09/19 15:40:58;;;;;;;5.60;1.83;;;;;;;;;;4973468;28;20411;-72
2023/09/19 15:43:25;;;;;;;6.37;2.10;;;;;;;;;;4972890;28;20463;-72
2023/09/19 15:45:51;;;;;;;2.07;1.30;;;;;;;;;;4973350;28;20428;-73
2023/09/19 15:48:18;;;;;;;3.60;1.77;;;;;;;;;;4973565;28;20444;-73
2023/09/19 15:50:44;;;;;;;2.33;1.37;;;;;;;;;;4973573;28;20404;-72
2023/09/19 15:53:13;;;;;;;2.13;1.60;;;;;;;;;;4973063;28;20867;-73
2023/09/19 15:55:39;;;;;;;3.30;1.77;;;;;;;;;;4973082;28;20474;-73
2023/09/19 15:58:06;;;;;;;2.20;1.57;;;;;;;;;;4973571;28;20442;-72
2023/09/19 16:00:36;;;;;;;3.43;1.60;;;;;;;;;;4973301;28;20462;-72
2023/09/19 16:03:02;;;;;;;3.93;1.77;;;;;;;;;;4972930;28;20946;-73
2023/09/19 16:05:28;;;;;;;3.47;2.00;;;;;;;;;;4973884;28;20424;-72
2023/09/19 16:07:54;;;;;;;3.20;1.70;;;;;;;;;;4973053;28;20404;-73
2023/09/19 16:10:21;;;;;;;3.73;1.73;;;;;;;;;;4973087;28;20431;-72
2023/09/19 16:12:47;;;;;;;5.27;2.33;;;;;;;;;;4972790;28;20431;-73
2023/09/19 16:15:15;;;;;;;4.60;2.10;;;;;;;;;;4972734;28;20459;-73
2023/09/19 16:17:41;;;;;;;8.10;2.70;;;;;;;;;;4971740;28;20434;-73
2023/09/19 16:20:11;;;;;;;4.20;2.17;;;;;;;;;;4972931;28;20416;-74
2023/09/19 16:22:38;;;;;;;4.03;1.90;;;;;;;;;;4972727;28;20481;-73
2023/09/19 16:25:04;;;;;;;2.40;1.60;;;;;;;;;;4972540;28;20438;-74
2023/09/19 16:27:30;;;;;;;2.70;1.70;;;;;;;;;;4972937;28;20918;-73
2023/09/19 16:29:56;;;;;;;5.30;1.93;;;;;;;;;;4972749;28;20408;-73
2023/09/19 16:32:21;;;;;;;1.77;1.33;;;;;;;;;;4972760;28;20416;-73
2023/09/19 16:34:47;;;;;;;2.70;1.70;;;;;;;;;;4972686;28;20493;-74
2023/09/19 16:37:17;;;;;;;4.40;2.40;;;;;;;;;;4972748;28;20435;-74
2023/09/19 16:39:43;;;;;;;5.80;2.67;;;;;;;;;;4972778;28;20895;-74
2023/09/19 16:42:11;;;;;;;4.33;2.40;;;;;;;;;;4972652;28;20487;-73
2023/09/19 16:44:37;;;;;;;5.43;2.80;;;;;;;;;;4972574;28;20431;-73
2023/09/19 16:47:03;;;;;;;5.10;2.70;;;;;;;;;;4972700;28;20880;-73
2023/09/19 16:49:30;;;;;;;5.90;2.40;;;;;;;;;;4972732;28;20404;-73
2023/09/19 16:51:56;;;;;;;3.00;1.87;;;;;;;;;;4972410;28;20416;-73
2023/09/19 16:54:23;;;;;;;6.73;2.53;;;;;;;;;;4973165;28;20434;-73
2023/09/19 16:56:49;;;;;;;4.40;2.47;;;;;;;;;;4976532;28;20482;-72
2023/09/19 16:59:15;;;;;;;2.80;2.00;;;;;;;;;;4976751;28;20411;-73
2023/09/19 17:01:41;;;;;;;4.37;2.20;;;;;;;;;;4976365;28;20411;-73
2023/09/19 17:04:08;;;;;;;6.70;2.70;;;;;;;;;;4976052;28;20538;-72
2023/09/19 17:06:34;;;;;;;6.20;3.03;;;;;;;;;;4976356;28;20411;-72
2023/09/19 17:09:00;;;;;;;3.83;2.90;;;;;;;;;;4976296;28;20407;-72
2023/09/19 17:11:26;;;;;;;14.37;3.10;;;;;;;;;;4976173;28;20412;-71
2023/09/19 17:13:56;;;;;;;6.23;3.10;;;;;;;;;;4975553;28;20485;-73
2023/09/19 17:16:22;;;;;;;6.00;3.50;;;;;;;;;;4976387;28;20403;-72
2023/09/19 17:18:55;;;;;;;4.80;2.60;;;;;;;;;;4976405;28;20899;-73
2023/09/19 17:21:22;;;;;;;5.07;2.60;;;;;;;;;;4976273;28;20903;-72
2023/09/19 17:23:48;;;;;;;4.03;2.80;;;;;;;;;;4975739;28;20985;-73
2023/09/19 17:26:16;;;;;;;2.63;2.10;;;;;;;;;;4976150;28;20408;-72
2023/09/19 17:28:42;;;;;;;4.07;2.37;;;;;;;;;;4974640;28;20562;-72
2023/09/19 17:31:11;;;;;;;8.27;4.03;;;;;;;;;;4975815;28;20423;-74
2023/09/19 17:33:37;;;;;;;7.43;2.67;;;;;;;;;;4975697;28;20440;-72
2023/09/19 17:36:06;;;;;;;6.30;3.20;;;;;;;;;;4975887;28;20403;-73
2023/09/19 17:38:33;;;;;;;4.33;2.57;;;;;;;;;;4976066;28;20448;-72
2023/09/19 17:41:03;;;;;;;4.63;2.40;;;;;;;;;;4975796;28;20895;-73
2023/09/19 17:43:29;;;;;;;15.13;3.23;;;;;;;;;;4976052;28;20550;-73
2023/09/19 17:45:55;;;;;;;4.27;2.50;;;;;;;;;;4974424;28;20438;-72
2023/09/19 17:48:21;;;;;;;4.97;2.50;;;;;;;;;;4975357;28;20412;-72
2023/09/19 17:50:47;;;;;;;4.40;3.03;;;;;;;;;;4974052;28;20419;-73
2023/09/19 17:53:13;;;;;;;4.27;2.70;;;;;;;;;;4975297;28;20490;-72
2023/09/19 17:55:39;;;;;;;7.83;2.97;;;;;;;;;;4975695;28;20479;-73
2023/09/19 17:58:05;;;;;;;4.10;2.80;;;;;;;;;;4975560;28;20447;-73
2023/09/19 18:00:34;;;;;;;7.83;4.07;;;;;;;;;;4975409;28;20727;-73
2023/09/19 18:03:03;;;;;;;8.70;3.33;;;;;;;;;;4975360;28;20466;-71
2023/09/19 18:05:30;;;;;;;3.53;2.40;;;;;;;;;;4975615;28;20870;-72
2023/09/19 18:07:56;;;;;;;5.80;3.23;;;;;;;;;;4975594;28;20408;-73
2023/09/19 18:10:22;;;;;;;4.67;2.30;;;;;;;;;;4975663;28;20412;-72
2023/09/19 18:12:48;;;;;;;7.93;3.10;;;;;;;;;;4973986;28;20420;-73
2023/09/19 18:15:14;;;;;;;5.90;2.60;;;;;;;;;;4997557;23;20487;-70
2023/09/19 18:17:40;;;;;;;7.70;2.90;;;;;;;;;;4975360;28;20772;-69
2023/09/19 18:20:09;;;;;;;4.70;2.87;;;;;;;;;;4975194;28;20408;-70
2023/09/19 18:22:35;;;;;;;5.90;2.60;;;;;;;;;;4973768;28;20469;-68
2023/09/19 18:25:02;;;;;;;5.50;2.90;;;;;;;;;;4974852;28;20455;-70
2023/09/19 18:27:30;;;;;;;4.30;2.40;;;;;;;;;;4974971;28;20854;-69
2023/09/19 18:29:56;;;;;;;5.70;2.70;;;;;;;;;;4975227;28;20771;-70
2023/09/19 18:32:23;;;;;;;4.90;3.30;;;;;;;;;;4974856;28;20471;-68
2023/09/19 18:34:49;;;;;;;7.93;3.60;;;;;;;;;;4974769;28;20503;-68
2023/09/19 18:37:15;;;;;;;7.80;3.67;;;;;;;;;;4974858;28;20439;-69
2023/09/19 18:39:41;;;;;;;6.63;3.83;;;;;;;;;;4974839;28;20846;-69
2023/09/19 18:42:07;;;;;;;10.60;5.43;;;;;;;;;;4975677;28;20476;-69
2023/09/19 18:44:34;;;;;;;8.50;4.83;;;;;;;;;;4974125;28;20959;-69
2023/09/19 18:47:01;;;;;;;9.27;4.90;;;;;;;;;;4975655;28;20438;-69
2023/09/19 18:49:28;;;;;;;9.57;5.20;;;;;;;;;;4975782;28;20412;-69
2023/09/19 18:51:53;;;;;;;8.17;5.27;;;;;;;;;;4975994;28;20741;-69
2023/09/19 18:54:19;;;;;;;7.67;4.57;;;;;;;;;;4976456;28;20808;-69
2023/09/19 18:56:46;;;;;;;6.10;3.90;;;;;;;;;;4976096;28;20416;-69
2023/09/19 18:59:13;;;;;;;9.77;4.37;;;;;;;;;;4990474;28;20412;-69
2023/09/19 19:01:39;;;;;;;8.07;4.43;;;;;;;;;;4990345;28;20408;-69
2023/09/19 19:04:05;;;;;;;12.97;5.37;;;;;;;;;;4988236;28;20466;-71
2023/09/19 19:06:32;;;;;;;15.50;5.50;;;;;;;;;;4982055;28;20451;-70
2023/09/19 19:08:59;;;;;;;9.17;5.17;;;;;;;;;;4977805;28;20907;-70
2023/09/19 19:11:29;;;;;;;8.43;4.33;;;;;;;;;;4976550;28;20462;-70
2023/09/19 19:13:55;;;;;;;10.20;4.40;;;;;;;;;;4975653;28;20491;-70
2023/09/19 19:16:21;;;;;;;10.10;5.23;;;;;;;;;;4976572;28;20419;-71
2023/09/19 19:18:49;;;;;;;5.60;3.67;;;;;;;;;;4974950;28;20412;-71
2023/09/19 19:21:16;;;;;;;5.83;3.40;;;;;;;;;;4975676;28;20447;-71
2023/09/19 19:23:42;;;;;;;6.10;3.37;;;;;;;;;;4975270;28;20455;-71
2023/09/19 19:26:08;;;;;;;7.40;3.70;;;;;;;;;;4974829;28;20445;-70
2023/09/19 19:28:35;;;;;;;7.50;4.50;;;;;;;;;;4974038;28;20455;-70
2023/09/19 19:31:02;;;;;;;6.77;3.57;;;;;;;;;;4961408;28;20504;-71
2023/09/19 19:33:29;;;;;;;6.30;3.87;;;;;;;;;;4974685;28;20420;-71
2023/09/19 19:36:05;;;;;;;7.17;4.03;;;;;;;;;;4974362;28;20439;-71
2023/09/19 19:38:32;;;;;;;8.23;3.43;;;;;;;;;;4974628;28;20428;-71
2023/09/19 19:41:07;;;;;;;6.20;3.70;;;;;;;;;;4973122;28;20420;-71
2023/09/19 19:43:34;;;;;;;10.17;4.67;;;;;;;;;;4974271;28;20484;-70
2023/09/19 19:46:01;;;;;;;13.30;3.83;;;;;;;;;;4974554;28;20535;-71
2023/09/19 19:48:28;;;;;;;8.53;4.07;;;;;;;;;;4974071;28;20492;-70
2023/09/19 19:50:54;;;;;;;10.23;4.63;;;;;;;;;;4969221;28;20548;-70
2023/09/19 19:53:23;;;;;;;7.20;4.07;;;;;;;;;;4955067;29;21003;-70
2023/09/19 19:55:49;;;;;;;10.93;4.40;;;;;;;;;;4955136;28;20425;-70
2023/09/19 19:58:15;;;;;;;6.50;4.27;;;;;;;;;;4954888;29;20439;-71
2023/09/19 20:00:42;;;;;;;7.57;3.85;;;;;;;;;;4955392;29;20420;-70
2023/09/19 20:03:10;;;;;;;7.93;4.07;;;;;;;;;;4954825;28;20686;-70
2023/09/19 20:05:40;;;;;;;9.90;4.90;;;;;;;;;;4954582;28;20475;-71
2023/09/19 20:08:07;;;;;;;8.13;4.80;;;;;;;;;;4954838;28;20766;-70
2023/09/19 20:10:36;;;;;;;9.10;4.63;;;;;;;;;;4954478;28;20423;-70
2023/09/19 20:13:06;;;;;;;8.57;4.90;;;;;;;;;;4954705;28;20772;-70
2023/09/19 20:15:33;;;;;;;12.40;6.13;;;;;;;;;;4954507;28;20467;-70
2023/09/19 20:17:59;;;;;;;14.73;6.90;;;;;;;;;;4954781;28;20420;-70
2023/09/19 20:20:27;;;;;;;8.70;5.30;;;;;;;;;;4954620;29;20408;-70
2023/09/19 20:22:53;;;;;;;11.47;6.87;;;;;;;;;;4953199;28;20543;-69
2023/09/19 20:25:20;;;;;;;9.43;5.40;;;;;;;;;;4954293;29;20433;-70
2023/09/19 20:27:47;;;;;;;10.03;5.30;;;;;;;;;;4954656;28;20417;-70
2023/09/19 20:30:14;;;;;;;8.50;4.37;;;;;;;;;;4955052;28;20416;-70
2023/09/19 20:32:41;;;;;;;6.90;4.70;;;;;;;;;;4953325;29;20540;-70
2023/09/19 20:35:08;;;;;;;11.10;5.33;;;;;;;;;;4954228;28;20511;-69
2023/09/19 20:37:36;;;;;;;9.90;4.50;;;;;;;;;;4954403;29;20421;-69
2023/09/19 20:40:03;;;;;;;5.37;3.30;;;;;;;;;;4968950;28;20420;-69
2023/09/19 20:42:29;;;;;;;7.10;4.23;;;;;;;;;;4954076;28;20454;-70
2023/09/19 20:44:56;;;;;;;8.73;3.90;;;;;;;;;;4954397;28;20508;-69
2023/09/19 20:47:23;;;;;;;11.23;4.67;;;;;;;;;;4954618;28;21086;-69
2023/09/19 20:49:49;;;;;;;6.83;4.00;;;;;;;;;;4964849;28;20483;-68
2023/09/19 20:52:15;;;;;;;6.60;3.43;;;;;;;;;;4972228;28;20424;-68
2023/09/19 20:54:46;;;;;;;6.90;3.90;;;;;;;;;;4973566;28;20525;-69